This is the latest recevied weather packets stored in our database for station/object NG7N. If no packets are shown the sender has not sent any weather packets the latest 10 day(s).
| Time | Temp. | Humidity | Pressure | Rain* | Wind** | Luminosity | Snow |
|---|---|---|---|---|---|---|---|
| 1777517961 | 13.89° C | 73% | 1022 hPa | 0 mm | - | - | - |
| 1777516161 | 14.44° C | 71% | 1022 hPa | 0 mm | - | - | - |
| 1777514361 | 15° C | 70% | 1022.2 hPa | 0 mm | - | - | - |
| 1777512561 | 15° C | 68% | 1022.4 hPa | 0 mm | - | - | - |
| 1777509042 | 15.56° C | 67% | 1022.5 hPa | 0 mm | - | - | - |
| 1777508961 | 15.56° C | 67% | 1022.5 hPa | 0 mm | - | - | - |
| 1777508901 | 16.67° C | 62% | 1022.5 hPa | 0 mm | - | - | - |
| 1777508689 | 16.67° C | 62% | 1022.5 hPa | 0 mm | - | - | - |
| 1777508656 | 16.67° C | 62% | 1022.5 hPa | 0 mm | - | - | - |
| 1777508579 | 16.67° C | 62% | 1022.5 hPa | 0 mm | - | - | - |
| 1777508544 | 16.67° C | 62% | 1022.5 hPa | 0 mm | - | - | - |
| 1777507161 | 16.11° C | 62% | 1022.6 hPa | 0 mm | - | - | - |
| 1777504761 | 15° C | 68% | 1022.8 hPa | 0 mm | - | - | - |
| 1777502405 | 15° C | 70% | 1023.1 hPa | 0 mm | - | - | - |
| 1777502361 | 15° C | 70% | 1023.1 hPa | 0 mm | - | - | - |
| 1777501761 | 15° C | 69% | 1023.4 hPa | 0 mm | - | - | - |
| 1777498161 | 15.56° C | 62% | 1023.6 hPa | 0 mm | - | - | - |
| 1777496361 | 15.56° C | 65% | 1023.6 hPa | 0 mm | - | - | - |
| 1777494561 | 15° C | 67% | 1024 hPa | 0 mm | - | - | - |
| 1777492812 | 14.44° C | 67% | 1024.1 hPa | 0 mm | - | - | - |
| 1777492760 | 14.44° C | 67% | 1024.1 hPa | 0 mm | - | - | - |
| 1777487360 | 12.78° C | 73% | 1024.7 hPa | 0 mm | - | - | - |
| 1777486160 | 12.78° C | 74% | 1024.7 hPa | 0 mm | - | - | - |
| 1777485561 | 12.22° C | 73% | 1024.9 hPa | 0 mm | - | - | - |
| 1777484961 | 12.22° C | 75% | 1024.9 hPa | 0 mm | - | - | - |
* Rain latest hour (hover to see other rain measurements)
** Current wind speed in m/s (hover to see current wind gust speed)